createdAt,value
2022-10-01T00:01:09.117Z,5.2
2022-10-01T00:02:19.239Z,5.2
2022-10-01T00:03:28.375Z,5.2
2022-10-01T00:04:38.480Z,5.1
2022-10-01T00:05:48.612Z,5.1
2022-10-01T00:06:58.728Z,5.1
2022-10-01T00:08:08.831Z,5.2
2022-10-01T00:09:18.954Z,5.2
2022-10-01T00:10:29.071Z,5.2
2022-10-01T00:11:39.197Z,5.2
2022-10-01T00:12:49.312Z,5.2
2022-10-01T00:13:59.426Z,5.2
2022-10-01T00:15:09.553Z,5.2
2022-10-01T00:16:19.670Z,5.2
2022-10-01T00:17:29.775Z,5.2
2022-10-01T00:18:38.921Z,5.2
2022-10-01T00:19:49.037Z,5.3
2022-10-01T00:20:59.157Z,5.3
2022-10-01T00:22:09.278Z,5.4
2022-10-01T00:23:19.381Z,5.5
2022-10-01T00:24:29.509Z,5.6
2022-10-01T00:25:39.618Z,5.6
2022-10-01T00:26:49.745Z,5.6
2022-10-01T00:27:59.862Z,5.6
2022-10-01T00:29:09.989Z,5.6
2022-10-01T00:30:20.102Z,5.7
2022-10-01T00:31:30.209Z,5.7
2022-10-01T00:32:40.340Z,5.7
2022-10-01T00:33:49.470Z,5.7
2022-10-01T00:34:59.592Z,5.7
2022-10-01T00:36:09.701Z,5.7
2022-10-01T00:37:19.813Z,5.7
2022-10-01T00:39:40.063Z,5.7
2022-10-01T00:40:50.167Z,5.7
2022-10-01T00:42:00.293Z,5.6
2022-10-01T00:43:10.415Z,5.6
2022-10-01T00:44:20.523Z,5.6
2022-10-01T00:45:30.656Z,5.6
2022-10-01T00:46:40.758Z,5.6
2022-10-01T00:47:50.879Z,5.6
2022-10-01T00:49:00.011Z,5.5
2022-10-01T00:50:10.141Z,5.5
2022-10-01T00:51:20.245Z,5.5
2022-10-01T00:52:30.367Z,5.5
2022-10-01T00:53:40.486Z,5.5
2022-10-01T00:54:50.605Z,5.4
2022-10-01T00:56:00.729Z,5.4
2022-10-01T00:57:10.851Z,5.4
2022-10-01T00:58:20.964Z,5.4
2022-10-01T00:59:31.071Z,5.4
2022-10-01T01:00:41.208Z,5.4
2022-10-01T01:01:51.308Z,5.4
2022-10-01T01:03:01.692Z,5.5
2022-10-01T01:04:10.575Z,5.6
2022-10-01T01:05:20.688Z,5.6
2022-10-01T01:06:30.807Z,5.6
2022-10-01T01:07:40.926Z,5.7
2022-10-01T01:08:51.042Z,5.7
2022-10-01T01:10:01.150Z,5.7
2022-10-01T01:11:11.272Z,5.8
2022-10-01T01:12:21.391Z,5.9
2022-10-01T01:13:31.522Z,6
2022-10-01T01:14:41.626Z,6
2022-10-01T01:15:51.748Z,6.1
2022-10-01T01:17:01.862Z,6.1
2022-10-01T01:18:11.981Z,6.2
2022-10-01T01:19:21.113Z,6.2
2022-10-01T01:20:31.000Z,6.3
2022-10-01T01:21:41.355Z,6.3
2022-10-01T01:22:51.475Z,6.3
2022-10-01T01:24:01.592Z,6.4
2022-10-01T01:25:11.718Z,6.4
2022-10-01T01:26:21.824Z,6.5
2022-10-01T01:27:31.947Z,6.6
2022-10-01T01:28:42.071Z,6.6
2022-10-01T01:29:52.175Z,6.6
2022-10-01T01:31:02.290Z,6.6
2022-10-01T01:32:12.422Z,6.7
2022-10-01T01:33:22.529Z,6.7
2022-10-01T01:34:31.661Z,6.7
2022-10-01T01:35:41.791Z,6.8
2022-10-01T01:36:51.898Z,6.8
2022-10-01T01:38:02.014Z,6.8
2022-10-01T01:39:12.397Z,6.9
2022-10-01T01:40:22.251Z,6.9
2022-10-01T01:41:32.378Z,6.9
2022-10-01T01:42:42.492Z,6.9
2022-10-01T01:43:52.614Z,6.9
2022-10-01T01:45:02.739Z,6.9
2022-10-01T01:46:12.842Z,6.9
2022-10-01T01:47:22.966Z,6.9
2022-10-01T01:48:33.092Z,6.9
2022-10-01T01:49:42.210Z,6.9
2022-10-01T01:50:52.333Z,6.9
2022-10-01T01:52:02.458Z,6.9
2022-10-01T01:53:12.571Z,6.9
2022-10-01T01:54:22.688Z,6.9
2022-10-01T01:55:32.806Z,7
2022-10-01T01:56:41.940Z,7
2022-10-01T01:57:52.072Z,7
2022-10-01T01:59:02.175Z,7
2022-10-01T02:00:12.299Z,7
2022-10-01T02:01:22.412Z,7
2022-10-01T02:02:32.541Z,7
2022-10-01T02:03:42.646Z,7
2022-10-01T02:04:52.773Z,7
2022-10-01T02:06:02.893Z,7
2022-10-01T02:07:13.017Z,7
2022-10-01T02:08:23.137Z,7
2022-10-01T02:09:33.246Z,7
2022-10-01T02:10:43.362Z,7
2022-10-01T02:11:52.500Z,7.1
2022-10-01T02:13:02.618Z,7.1
2022-10-01T02:14:12.737Z,7.1
2022-10-01T02:15:23.104Z,7.1
2022-10-01T02:16:32.966Z,7.1
2022-10-01T02:17:43.090Z,7.2
2022-10-01T02:18:53.210Z,7.2
2022-10-01T02:20:03.327Z,7.2
2022-10-01T02:21:13.451Z,7.2
2022-10-01T02:22:23.560Z,7.2
2022-10-01T02:23:33.679Z,7.2
2022-10-01T02:24:43.800Z,7.2
2022-10-01T02:25:53.921Z,7.2
2022-10-01T02:27:03.044Z,7.3
2022-10-01T02:28:13.171Z,7.3
2022-10-01T02:29:23.286Z,7.3
2022-10-01T02:30:33.407Z,7.3
2022-10-01T02:31:43.527Z,7.3
2022-10-01T02:32:53.629Z,7.2
2022-10-01T02:34:03.746Z,7.2
2022-10-01T02:35:13.866Z,7.2
2022-10-01T02:36:23.998Z,7.2
2022-10-01T02:37:34.103Z,7.2
2022-10-01T02:38:44.220Z,7.2
2022-10-01T02:39:54.342Z,7.2
2022-10-01T02:41:04.471Z,7.2
2022-10-01T02:42:13.587Z,7.2
2022-10-01T02:43:23.708Z,7.2
2022-10-01T02:44:33.835Z,7.2
2022-10-01T02:45:44.208Z,7.1
2022-10-01T02:46:54.065Z,7.1
2022-10-01T02:48:04.179Z,7
2022-10-01T02:49:14.306Z,7
2022-10-01T02:50:24.677Z,7
2022-10-01T02:51:34.547Z,7
2022-10-01T02:52:44.648Z,6.9
2022-10-01T02:53:54.778Z,6.9
2022-10-01T02:55:04.894Z,6.9
2022-10-01T02:56:15.006Z,6.9
2022-10-01T02:57:24.139Z,6.9
2022-10-01T02:59:44.384Z,6.9
2022-10-01T03:00:54.505Z,6.8
2022-10-01T03:02:04.608Z,6.8
2022-10-01T03:03:14.732Z,6.8
2022-10-01T03:04:24.850Z,6.8
2022-10-01T03:05:34.976Z,6.8
2022-10-01T03:06:45.098Z,6.8
2022-10-01T03:07:55.208Z,6.8
2022-10-01T03:09:05.333Z,6.8
2022-10-01T03:10:15.450Z,6.9
2022-10-01T03:11:25.568Z,6.9
2022-10-01T03:12:34.703Z,6.9
2022-10-01T03:13:44.821Z,6.9
2022-10-01T03:14:54.922Z,6.9
2022-10-01T03:16:05.048Z,6.9
2022-10-01T03:17:15.173Z,6.9
2022-10-01T03:18:25.292Z,6.9
2022-10-01T03:19:35.409Z,6.9
2022-10-01T03:20:45.521Z,7
2022-10-01T03:21:55.640Z,7
2022-10-01T03:23:05.755Z,7
2022-10-01T03:24:15.884Z,7.1
2022-10-01T03:25:25.989Z,7
2022-10-01T03:26:36.109Z,7.1
2022-10-01T03:27:45.237Z,7.1
2022-10-01T03:28:55.359Z,7.1
2022-10-01T03:30:05.472Z,7.1
2022-10-01T03:31:15.590Z,7.1
2022-10-01T03:32:25.711Z,7.1
2022-10-01T03:33:35.835Z,7.1
2022-10-01T03:34:45.954Z,7.1
2022-10-01T03:35:56.000Z,7
2022-10-01T03:37:06.179Z,7
2022-10-01T03:38:16.297Z,7
2022-10-01T03:39:26.415Z,7
2022-10-01T03:40:36.535Z,7
2022-10-01T03:41:46.657Z,7
2022-10-01T03:42:55.800Z,7
2022-10-01T03:44:05.906Z,7
2022-10-01T03:45:16.026Z,7
2022-10-01T03:46:26.152Z,7
2022-10-01T03:47:36.257Z,7
2022-10-01T03:48:46.392Z,7
2022-10-01T03:49:56.500Z,7
2022-10-01T03:51:06.624Z,7
2022-10-01T03:52:16.730Z,7
2022-10-01T03:53:26.859Z,6.9
2022-10-01T03:54:36.975Z,6.9
2022-10-01T03:55:47.102Z,6.9
2022-10-01T03:56:57.208Z,7
2022-10-01T03:58:06.344Z,6.9
2022-10-01T03:59:16.469Z,7
2022-10-01T04:00:26.588Z,7
2022-10-01T04:01:36.693Z,7
2022-10-01T04:02:46.819Z,7
2022-10-01T04:03:56.940Z,7
2022-10-01T04:05:07.048Z,7
2022-10-01T04:06:17.177Z,7
2022-10-01T04:07:27.296Z,7.1
2022-10-01T04:08:37.397Z,7.1
2022-10-01T04:09:47.526Z,7.2
2022-10-01T04:10:57.645Z,7.2
2022-10-01T04:12:07.762Z,7.2
2022-10-01T04:13:16.900Z,7.2
2022-10-01T04:14:27.009Z,7.2
2022-10-01T04:15:37.129Z,7.3
2022-10-01T04:16:47.257Z,7.3
2022-10-01T04:17:57.362Z,7.3
2022-10-01T04:19:07.476Z,7.4
2022-10-01T04:20:17.595Z,7.4
2022-10-01T04:21:27.971Z,7.4
2022-10-01T04:22:37.835Z,7.4
2022-10-01T04:23:47.953Z,7.5
2022-10-01T04:24:58.075Z,7.5
2022-10-01T04:26:08.185Z,7.6
2022-10-01T04:27:18.304Z,7.6
2022-10-01T04:28:27.439Z,7.6
2022-10-01T04:29:37.566Z,7.6
2022-10-01T04:30:47.685Z,7.7
2022-10-01T04:31:57.803Z,7.7
2022-10-01T04:33:07.910Z,7.7
2022-10-01T04:34:18.040Z,7.8
2022-10-01T04:35:28.159Z,7.8
2022-10-01T04:36:38.260Z,7.8
2022-10-01T04:37:48.385Z,7.8
2022-10-01T04:38:58.512Z,7.8
2022-10-01T04:40:08.614Z,7.8
2022-10-01T04:41:18.745Z,7.8
2022-10-01T04:42:28.865Z,7.8
2022-10-01T04:43:38.000Z,7.8
2022-10-01T04:44:48.115Z,7.8
2022-10-01T04:45:58.235Z,7.8
2022-10-01T04:47:08.344Z,7.9
2022-10-01T04:48:18.466Z,7.8
2022-10-01T04:49:28.587Z,7.8
2022-10-01T04:51:48.824Z,7.9
2022-10-01T04:52:58.942Z,7.9
2022-10-01T04:54:09.061Z,7.9
2022-10-01T04:55:19.161Z,7.9
2022-10-01T04:56:29.283Z,7.9
2022-10-01T04:57:39.407Z,7.9
2022-10-01T04:58:48.542Z,7.9
2022-10-01T04:59:58.662Z,7.8
2022-10-01T05:01:08.767Z,7.9
2022-10-01T05:02:18.896Z,7.9
2022-10-01T05:03:29.021Z,7.9
2022-10-01T05:04:39.121Z,7.9
2022-10-01T05:05:49.241Z,7.9
2022-10-01T05:06:59.369Z,7.9
2022-10-01T05:08:09.000Z,7.9
2022-10-01T05:09:19.596Z,7.9
2022-10-01T05:10:29.715Z,8
2022-10-01T05:11:39.843Z,8
2022-10-01T05:12:49.952Z,8
2022-10-01T05:13:59.095Z,8
2022-10-01T05:15:09.200Z,8
2022-10-01T05:16:19.323Z,8
2022-10-01T05:17:29.435Z,8
2022-10-01T05:18:39.556Z,8
2022-10-01T05:19:49.676Z,8
2022-10-01T05:21:00.053Z,8
2022-10-01T05:22:09.911Z,8
2022-10-01T05:23:20.280Z,8.1
2022-10-01T05:24:30.142Z,8.1
2022-10-01T05:25:40.270Z,8.1
2022-10-01T05:26:50.389Z,8.1
2022-10-01T05:28:00.496Z,8.1
2022-10-01T05:29:09.635Z,8.2
2022-10-01T05:30:19.754Z,8.2
2022-10-01T05:31:29.879Z,8.2
2022-10-01T05:32:40.001Z,8.2
2022-10-01T05:33:50.104Z,8.2
2022-10-01T05:35:00.232Z,8.2
2022-10-01T05:36:10.338Z,8.3
2022-10-01T05:37:20.462Z,8.3
2022-10-01T05:38:30.826Z,8.4
2022-10-01T05:39:40.693Z,8.4
2022-10-01T05:40:50.815Z,8.4
2022-10-01T05:42:00.933Z,8.4
2022-10-01T05:43:11.056Z,8.4
2022-10-01T05:44:20.187Z,8.5
2022-10-01T05:45:30.309Z,8.5
2022-10-01T05:46:40.426Z,8.5
2022-10-01T05:47:50.543Z,8.5
2022-10-01T05:49:00.668Z,8.5
2022-10-01T05:50:10.771Z,8.5
2022-10-01T05:51:19.911Z,8.6
2022-10-01T05:52:30.034Z,8.6
2022-10-01T05:54:50.267Z,8.6
2022-10-01T05:56:00.396Z,8.7
2022-10-01T05:57:10.499Z,8.7
2022-10-01T05:58:20.623Z,8.7
2022-10-01T05:59:30.744Z,8.7
2022-10-01T06:00:40.853Z,8.7
2022-10-01T06:01:50.979Z,8.7
2022-10-01T06:03:01.095Z,8.7
2022-10-01T06:04:11.218Z,8.8
2022-10-01T06:05:21.340Z,8.8
2022-10-01T06:06:30.458Z,8.8
2022-10-01T06:07:40.581Z,8.8
2022-10-01T06:08:50.698Z,8.8
2022-10-01T06:10:00.826Z,8.9
2022-10-01T06:11:10.932Z,8.9
2022-10-01T06:12:21.056Z,8.9
2022-10-01T06:13:31.179Z,9
2022-10-01T06:14:41.280Z,9
2022-10-01T06:15:51.403Z,9.1
2022-10-01T06:17:01.518Z,9.1
2022-10-01T06:18:11.651Z,9.1
2022-10-01T06:19:21.770Z,9.1
2022-10-01T06:20:31.887Z,9.1
2022-10-01T06:21:41.017Z,9.2
2022-10-01T06:22:51.139Z,9.2
2022-10-01T06:24:01.245Z,9.2
2022-10-01T06:25:11.364Z,9.2
2022-10-01T06:26:21.487Z,9.2
2022-10-01T06:27:31.593Z,9.3
2022-10-01T06:28:41.719Z,9.3
2022-10-01T06:29:51.832Z,9.3
2022-10-01T06:31:01.955Z,9.4
2022-10-01T06:32:12.071Z,9.4
2022-10-01T06:33:22.199Z,9.4
2022-10-01T06:34:32.317Z,9.4
2022-10-01T06:35:42.434Z,9.5
2022-10-01T06:36:51.571Z,9.5
2022-10-01T06:38:01.676Z,9.5
2022-10-01T06:39:11.805Z,9.5
2022-10-01T06:40:21.906Z,9.5
2022-10-01T06:41:32.029Z,9.5
2022-10-01T06:43:52.261Z,9.6
2022-10-01T06:45:02.383Z,9.6
2022-10-01T06:46:12.499Z,9.6
2022-10-01T06:47:22.620Z,9.6
2022-10-01T06:48:32.750Z,9.6
2022-10-01T06:49:42.851Z,9.6
2022-10-01T06:50:52.975Z,9.7
2022-10-01T06:52:02.108Z,9.7
2022-10-01T06:53:12.225Z,9.7
2022-10-01T06:54:22.347Z,9.7
2022-10-01T06:55:32.466Z,9.8
2022-10-01T06:56:42.576Z,9.8
2022-10-01T06:57:52.703Z,9.9
2022-10-01T06:59:02.810Z,9.9
2022-10-01T07:00:12.928Z,9.9
2022-10-01T07:01:23.049Z,9.9
2022-10-01T07:02:33.169Z,10
2022-10-01T07:03:43.294Z,10
2022-10-01T07:04:53.405Z,10
2022-10-01T07:06:03.531Z,10.1
2022-10-01T07:07:12.660Z,10.2
2022-10-01T07:08:22.785Z,10.2
2022-10-01T07:09:33.152Z,10.3
2022-10-01T07:10:43.007Z,10.3
2022-10-01T07:11:53.127Z,10.4
2022-10-01T07:13:03.254Z,10.5
2022-10-01T07:14:13.362Z,10.5
2022-10-01T07:15:23.482Z,10.5
2022-10-01T07:16:33.606Z,10.6
2022-10-01T07:17:43.712Z,10.6
2022-10-01T07:18:53.832Z,10.7
2022-10-01T07:20:03.948Z,10.6
2022-10-01T07:21:14.073Z,10.6
2022-10-01T07:22:23.206Z,10.6
2022-10-01T07:23:33.316Z,10.6
2022-10-01T07:24:43.444Z,10.6
2022-10-01T07:25:53.568Z,10.7
2022-10-01T07:27:03.671Z,10.7
2022-10-01T07:28:13.798Z,10.7
2022-10-01T07:29:23.916Z,10.7
2022-10-01T07:30:34.022Z,10.7
2022-10-01T07:31:44.143Z,10.7
2022-10-01T07:32:54.262Z,10.7
2022-10-01T07:34:04.386Z,10.7
2022-10-01T07:35:14.504Z,10.7
2022-10-01T07:36:24.619Z,10.7
2022-10-01T07:37:33.751Z,10.7
2022-10-01T07:38:43.872Z,10.8
2022-10-01T07:39:54.230Z,10.8
2022-10-01T07:41:04.097Z,10.8
2022-10-01T07:42:14.222Z,10.8
2022-10-01T07:43:24.345Z,10.9
2022-10-01T07:44:34.450Z,10.9
2022-10-01T07:45:44.573Z,10.9
2022-10-01T07:46:54.693Z,11
2022-10-01T07:48:04.810Z,11
2022-10-01T07:49:14.932Z,11
2022-10-01T07:50:25.045Z,11
2022-10-01T07:51:35.166Z,11
2022-10-01T07:52:44.308Z,11
2022-10-01T07:53:54.414Z,11.1
2022-10-01T07:55:04.534Z,11
2022-10-01T07:56:14.650Z,11.1
2022-10-01T07:57:24.772Z,11.1
2022-10-01T07:58:34.894Z,11.1
2022-10-01T07:59:44.998Z,11
2022-10-01T08:00:55.126Z,11
2022-10-01T08:02:05.248Z,11
2022-10-01T08:03:15.357Z,11
2022-10-01T08:04:25.477Z,10.9
2022-10-01T08:05:35.587Z,10.9
2022-10-01T08:06:45.710Z,10.9
2022-10-01T08:07:54.841Z,10.9
2022-10-01T08:09:04.966Z,10.9
2022-10-01T08:10:15.073Z,10.9
2022-10-01T08:11:25.450Z,10.9
2022-10-01T08:12:35.577Z,11
2022-10-01T08:13:45.398Z,11.1
2022-10-01T08:14:55.517Z,11.2
2022-10-01T08:16:05.644Z,11.2
2022-10-01T08:17:15.755Z,11.3
2022-10-01T08:18:25.879Z,11.4
2022-10-01T08:19:35.998Z,11.4
2022-10-01T08:20:46.102Z,11.5
2022-10-01T08:21:56.221Z,11.5
2022-10-01T08:23:05.155Z,11.4
2022-10-01T08:24:15.477Z,11.4
2022-10-01T08:25:25.383Z,11.3
2022-10-01T08:26:35.991Z,11.3
2022-10-01T08:27:45.828Z,11.3
2022-10-01T08:28:55.954Z,11.2
2022-10-01T08:30:06.339Z,11.2
2022-10-01T08:31:16.195Z,11.2
2022-10-01T08:32:26.307Z,11.2
2022-10-01T08:33:36.415Z,11.3
2022-10-01T08:34:46.547Z,11.2
2022-10-01T08:35:56.651Z,11.2
2022-10-01T08:37:06.769Z,11.3
2022-10-01T08:38:15.908Z,11.3
2022-10-01T08:39:26.030Z,11.4
2022-10-01T08:40:36.147Z,11.4
2022-10-01T08:41:46.270Z,11.5
2022-10-01T08:42:56.370Z,11.5
2022-10-01T08:44:06.498Z,11.5
2022-10-01T08:45:16.623Z,11.5
2022-10-01T08:47:36.848Z,11.5
2022-10-01T08:48:46.967Z,11.5
2022-10-01T08:49:57.088Z,11.5
2022-10-01T08:51:07.202Z,11.5
2022-10-01T08:52:17.321Z,11.4
2022-10-01T08:53:26.457Z,11.3
2022-10-01T08:54:36.572Z,11.2
2022-10-01T08:56:56.812Z,11
2022-10-01T08:58:06.930Z,10.9
2022-10-01T08:59:17.051Z,10.9
2022-10-01T09:00:27.184Z,10.8
2022-10-01T09:01:37.302Z,10.8
2022-10-01T09:02:47.400Z,10.8
2022-10-01T09:03:57.524Z,10.8
2022-10-01T09:05:07.653Z,10.8
2022-10-01T09:06:17.755Z,10.8
2022-10-01T09:07:27.881Z,10.8
2022-10-01T09:08:37.010Z,10.8
2022-10-01T09:09:47.137Z,10.8
2022-10-01T09:10:57.243Z,10.8
2022-10-01T09:12:07.362Z,10.8
2022-10-01T09:13:17.489Z,10.8
2022-10-01T09:14:27.610Z,10.8
2022-10-01T09:15:37.729Z,10.8
2022-10-01T09:16:47.829Z,10.8
2022-10-01T09:17:57.955Z,10.8
2022-10-01T09:19:07.840Z,10.8
2022-10-01T09:20:18.185Z,10.9
2022-10-01T09:21:28.000Z,10.9
2022-10-01T09:22:38.431Z,11
2022-10-01T09:23:47.561Z,11
2022-10-01T09:24:57.683Z,11
2022-10-01T09:26:07.800Z,11.1
2022-10-01T09:27:17.906Z,11.2
2022-10-01T09:28:28.029Z,11.2
2022-10-01T09:29:38.139Z,11.1
2022-10-01T09:30:48.259Z,11.1
2022-10-01T09:31:58.383Z,11.1
2022-10-01T09:33:08.504Z,11
2022-10-01T09:34:18.627Z,10.9
2022-10-01T09:35:28.729Z,10.9
2022-10-01T09:36:38.853Z,10.8
2022-10-01T09:37:48.971Z,10.8
2022-10-01T09:38:58.095Z,10.8
2022-10-01T09:40:08.216Z,10.8
2022-10-01T09:41:18.337Z,10.8
2022-10-01T09:42:28.452Z,10.9
2022-10-01T09:43:38.577Z,10.8
2022-10-01T09:44:48.698Z,10.9
2022-10-01T09:45:57.832Z,10.8
2022-10-01T09:47:07.954Z,10.9
2022-10-01T09:48:18.058Z,10.9
2022-10-01T09:49:28.182Z,10.9
2022-10-01T09:50:38.304Z,11
2022-10-01T09:51:48.420Z,11
2022-10-01T09:52:58.533Z,11
2022-10-01T09:54:08.650Z,10.9
2022-10-01T09:55:18.782Z,10.8
2022-10-01T09:56:28.901Z,10.9
2022-10-01T09:57:38.783Z,10.8
2022-10-01T09:58:49.119Z,10.8
2022-10-01T09:59:59.242Z,10.8
2022-10-01T10:01:08.373Z,10.8
2022-10-01T10:02:18.496Z,10.7
2022-10-01T10:03:28.618Z,10.7
2022-10-01T10:04:38.725Z,10.7
2022-10-01T10:05:48.851Z,10.6
2022-10-01T10:06:58.971Z,10.6
2022-10-01T10:08:09.078Z,10.6
2022-10-01T10:09:19.195Z,10.6
2022-10-01T10:10:29.320Z,10.6
2022-10-01T10:11:39.439Z,10.7
2022-10-01T10:12:49.553Z,10.7
2022-10-01T10:13:59.665Z,10.7
2022-10-01T10:15:09.800Z,10.7
2022-10-01T10:16:18.919Z,10.7
2022-10-01T10:17:29.043Z,10.7
2022-10-01T10:18:39.164Z,10.7
2022-10-01T10:20:59.396Z,10.7
2022-10-01T10:22:09.513Z,10.7
2022-10-01T10:23:19.629Z,10.7
2022-10-01T10:24:29.743Z,10.6
2022-10-01T10:25:39.631Z,10.6
2022-10-01T10:26:49.979Z,10.6
2022-10-01T10:27:59.881Z,10.6
2022-10-01T10:29:10.222Z,10.6
2022-10-01T10:30:20.327Z,10.6
2022-10-01T10:31:29.462Z,10.6
2022-10-01T10:32:39.582Z,10.6
2022-10-01T10:33:49.713Z,10.6
2022-10-01T10:34:59.814Z,10.6
2022-10-01T10:36:09.943Z,10.6
2022-10-01T10:37:20.064Z,10.6
2022-10-01T10:38:30.166Z,10.6
2022-10-01T10:39:40.302Z,10.6
2022-10-01T10:40:50.409Z,10.7
2022-10-01T10:42:00.525Z,10.7
2022-10-01T10:43:10.647Z,10.6
2022-10-01T10:44:20.771Z,10.7
2022-10-01T10:45:30.878Z,10.6
2022-10-01T10:46:40.009Z,10.6
2022-10-01T10:47:50.135Z,10.6
2022-10-01T10:49:00.252Z,10.6
2022-10-01T10:50:10.369Z,10.6
2022-10-01T10:51:20.493Z,10.6
2022-10-01T10:52:30.614Z,10.6
2022-10-01T10:53:40.719Z,10.7
2022-10-01T10:54:50.839Z,10.7
2022-10-01T10:56:00.960Z,10.7
2022-10-01T10:57:11.084Z,10.7
2022-10-01T10:58:21.185Z,10.7
2022-10-01T10:59:31.306Z,10.7
2022-10-01T11:00:41.190Z,10.7
2022-10-01T11:01:50.563Z,10.6
2022-10-01T11:03:00.452Z,10.6
2022-10-01T11:04:10.803Z,10.6
2022-10-01T11:05:20.919Z,10.7
2022-10-01T11:06:31.035Z,10.7
2022-10-01T11:07:41.155Z,10.6
2022-10-01T11:08:51.272Z,10.7
2022-10-01T11:10:01.392Z,10.7
2022-10-01T11:11:11.497Z,10.7
2022-10-01T11:12:21.619Z,10.7
2022-10-01T11:13:31.742Z,10.7
2022-10-01T11:14:41.628Z,10.7
2022-10-01T11:15:51.983Z,10.6
2022-10-01T11:17:01.111Z,10.6
2022-10-01T11:18:11.232Z,10.7
2022-10-01T11:19:21.352Z,10.7
2022-10-01T11:20:31.458Z,10.8
2022-10-01T11:21:41.574Z,10.8
2022-10-01T11:22:51.697Z,10.8
2022-10-01T11:24:01.823Z,10.8
2022-10-01T11:25:11.941Z,10.8
2022-10-01T11:26:22.045Z,10.7
2022-10-01T11:27:32.169Z,10.8
2022-10-01T11:28:42.281Z,10.8
2022-10-01T11:29:52.396Z,10.8
2022-10-01T11:31:02.512Z,10.8
2022-10-01T11:32:11.654Z,10.8
2022-10-01T11:33:21.774Z,10.8
2022-10-01T11:34:31.887Z,10.8
2022-10-01T11:35:42.014Z,10.8
2022-10-01T11:36:52.136Z,10.8
2022-10-01T11:38:02.238Z,10.9
2022-10-01T11:39:12.357Z,10.9
2022-10-01T11:40:22.487Z,10.9
2022-10-01T11:41:32.604Z,10.9
2022-10-01T11:42:42.705Z,10.9
2022-10-01T11:43:52.831Z,11
2022-10-01T11:45:02.954Z,11
2022-10-01T11:46:13.061Z,11
2022-10-01T11:47:22.193Z,11
2022-10-01T11:48:32.314Z,11
2022-10-01T11:49:42.437Z,11.1
2022-10-01T11:50:52.556Z,11.1
2022-10-01T11:52:02.679Z,11.1
2022-10-01T11:53:12.786Z,11.1
2022-10-01T11:54:22.909Z,11
2022-10-01T11:55:33.029Z,11
2022-10-01T11:56:43.135Z,11.1
2022-10-01T11:57:53.256Z,11
2022-10-01T11:59:03.379Z,11.1
2022-10-01T12:00:13.504Z,11.1
2022-10-01T12:01:23.604Z,11.1
2022-10-01T12:02:32.753Z,11.1
2022-10-01T12:03:42.872Z,11.1
2022-10-01T12:04:52.980Z,11
2022-10-01T12:06:03.106Z,11.1
2022-10-01T12:07:13.225Z,11
2022-10-01T12:08:23.334Z,11
2022-10-01T12:09:33.452Z,11
2022-10-01T12:10:43.570Z,11
2022-10-01T12:11:53.689Z,10.9
2022-10-01T12:13:03.815Z,10.9
2022-10-01T12:14:13.929Z,11
2022-10-01T12:15:24.032Z,11
2022-10-01T12:16:34.153Z,11
2022-10-01T12:17:43.287Z,11
2022-10-01T12:20:03.522Z,11
2022-10-01T12:21:13.654Z,11
2022-10-01T12:22:23.773Z,10.9
2022-10-01T12:23:33.877Z,10.9
2022-10-01T12:24:44.002Z,10.9
2022-10-01T12:25:54.107Z,10.9
2022-10-01T12:27:04.225Z,10.9
2022-10-01T12:28:14.347Z,10.8
2022-10-01T12:29:24.464Z,10.8
2022-10-01T12:30:34.580Z,10.8
2022-10-01T12:31:44.703Z,10.9
2022-10-01T12:32:53.841Z,10.9
2022-10-01T12:34:03.956Z,10.9
2022-10-01T12:35:14.069Z,10.9
2022-10-01T12:36:24.183Z,10.9
2022-10-01T12:38:44.424Z,10.9
2022-10-01T12:39:54.547Z,10.9
2022-10-01T12:41:04.653Z,11
2022-10-01T12:42:14.772Z,11
2022-10-01T12:43:24.893Z,11
2022-10-01T12:44:35.019Z,11
2022-10-01T12:45:45.138Z,11.1
2022-10-01T12:46:55.262Z,11.1
2022-10-01T12:48:04.393Z,11.1
2022-10-01T12:49:14.497Z,11.1
2022-10-01T12:50:24.630Z,11.1
2022-10-01T12:51:34.731Z,11.1
2022-10-01T12:52:44.853Z,11.1
2022-10-01T12:53:54.970Z,11.2
2022-10-01T12:55:05.091Z,11.2
2022-10-01T12:56:15.215Z,11.3
2022-10-01T12:58:35.435Z,11.5
2022-10-01T12:59:45.558Z,11.7
2022-10-01T13:00:55.678Z,11.7
2022-10-01T13:02:05.794Z,11.6
2022-10-01T13:03:14.929Z,11.6
2022-10-01T13:04:25.053Z,11.7
2022-10-01T13:05:35.162Z,11.7
2022-10-01T13:06:45.293Z,11.6
2022-10-01T13:09:05.517Z,11.7
2022-10-01T13:10:15.627Z,11.6
2022-10-01T13:11:25.752Z,11.7
2022-10-01T13:12:35.870Z,11.7
2022-10-01T13:13:45.997Z,11.8
2022-10-01T13:14:56.112Z,11.8
2022-10-01T13:16:06.222Z,11.8
2022-10-01T13:17:16.351Z,11.8
2022-10-01T13:18:25.469Z,11.8
2022-10-01T13:19:35.595Z,11.9
2022-10-01T13:20:45.715Z,11.9
2022-10-01T13:21:55.838Z,12
2022-10-01T13:23:05.956Z,12
2022-10-01T13:24:16.071Z,12.1
2022-10-01T13:25:26.180Z,12.2
2022-10-01T13:26:36.304Z,12.4
2022-10-01T13:27:46.422Z,12.5
2022-10-01T13:30:06.660Z,12.5
2022-10-01T13:31:16.762Z,12.6
2022-10-01T13:32:26.879Z,12.6
2022-10-01T13:33:36.018Z,12.7
2022-10-01T13:34:46.138Z,12.9
2022-10-01T13:35:56.266Z,13
2022-10-01T13:37:06.363Z,13
2022-10-01T13:38:16.483Z,13.2
2022-10-01T13:39:26.612Z,13.2
2022-10-01T13:40:35.740Z,13.1
2022-10-01T13:41:45.863Z,13.1
2022-10-01T13:42:55.989Z,13.2
2022-10-01T13:44:06.359Z,13.2
2022-10-01T13:45:16.227Z,13.3
2022-10-01T13:46:26.339Z,13.5
2022-10-01T13:47:36.448Z,13.5
2022-10-01T13:48:46.000Z,13.4
2022-10-01T13:49:56.949Z,13.3
2022-10-01T13:51:06.797Z,13.2
2022-10-01T13:52:16.922Z,13.2
2022-10-01T13:53:27.034Z,13.3
2022-10-01T13:54:37.152Z,13.5
2022-10-01T13:55:46.290Z,13.6
2022-10-01T13:56:56.418Z,13.7
2022-10-01T13:58:06.536Z,13.6
2022-10-01T13:59:16.900Z,13.5
2022-10-01T14:00:26.756Z,13.6
2022-10-01T14:01:36.878Z,13.6
2022-10-01T14:02:47.264Z,13.5
2022-10-01T14:03:57.107Z,13.7
2022-10-01T14:05:07.486Z,13.9
2022-10-01T14:06:17.344Z,14
2022-10-01T14:07:27.462Z,14.2
2022-10-01T14:08:37.591Z,14.1
2022-10-01T14:09:47.698Z,14
2022-10-01T14:10:56.834Z,14
2022-10-01T14:12:06.948Z,14.1
2022-10-01T14:13:17.076Z,14.1
2022-10-01T14:14:27.199Z,14.1
2022-10-01T14:15:37.300Z,14.1
2022-10-01T14:16:47.425Z,14.2
2022-10-01T14:17:57.534Z,14.4
2022-10-01T14:19:07.413Z,14.4
2022-10-01T14:20:17.785Z,14.5
2022-10-01T14:21:27.651Z,14.6
2022-10-01T14:22:38.021Z,14.8
2022-10-01T14:23:48.124Z,14.9
2022-10-01T14:24:58.244Z,14.7
2022-10-01T14:26:07.381Z,14.7
2022-10-01T14:27:17.506Z,14.8
2022-10-01T14:28:27.610Z,14.8
2022-10-01T14:29:37.736Z,14.9
2022-10-01T14:30:47.843Z,14.8
2022-10-01T14:31:57.966Z,14.8
2022-10-01T14:33:08.094Z,14.8
2022-10-01T14:34:18.211Z,14.8
2022-10-01T14:35:28.313Z,14.9
2022-10-01T14:36:38.437Z,14.8
2022-10-01T14:37:48.562Z,14.6
2022-10-01T14:38:58.667Z,14.6
2022-10-01T14:40:08.790Z,14.6
2022-10-01T14:41:17.934Z,14.4
2022-10-01T14:42:28.049Z,14.2
2022-10-01T14:43:38.170Z,14.2
2022-10-01T14:44:48.273Z,14.4
2022-10-01T14:45:58.396Z,14.7
2022-10-01T14:47:08.513Z,14.7
2022-10-01T14:48:18.639Z,14.5
2022-10-01T14:49:28.739Z,14.6
2022-10-01T14:50:38.867Z,14.5
2022-10-01T14:51:49.237Z,14.3
2022-10-01T14:52:59.092Z,14.1
2022-10-01T14:54:09.218Z,13.9
2022-10-01T14:55:19.339Z,13.8
2022-10-01T14:56:28.476Z,13.8
2022-10-01T14:57:38.579Z,14.7
2022-10-01T14:58:48.702Z,14.8
2022-10-01T14:59:58.822Z,14.4
2022-10-01T15:01:08.934Z,14.1
2022-10-01T15:02:19.062Z,13.9
2022-10-01T15:03:29.446Z,13.7
2022-10-01T15:04:39.295Z,13.6
2022-10-01T15:05:49.402Z,13.5
2022-10-01T15:06:59.519Z,13.5
2022-10-01T15:08:09.647Z,13.5
2022-10-01T15:09:19.769Z,13.5
2022-10-01T15:10:29.889Z,13.4
2022-10-01T15:11:39.005Z,13.4
2022-10-01T15:12:49.129Z,13.4
2022-10-01T15:13:59.243Z,13.4
2022-10-01T15:15:09.368Z,13.3
2022-10-01T15:16:19.479Z,13.3
2022-10-01T15:17:29.606Z,13.4
2022-10-01T15:18:39.726Z,13.4
2022-10-01T15:19:49.597Z,13.4
2022-10-01T15:20:59.958Z,13.6
2022-10-01T15:22:10.080Z,13.6
2022-10-01T15:23:20.199Z,13.7
2022-10-01T15:24:30.313Z,13.7
2022-10-01T15:25:40.417Z,13.7
2022-10-01T15:26:49.813Z,13.7
2022-10-01T15:27:59.671Z,13.6
2022-10-01T15:29:09.797Z,13.6
2022-10-01T15:30:19.920Z,13.5
2022-10-01T15:31:30.027Z,13.6
2022-10-01T15:32:40.143Z,13.6
2022-10-01T15:33:50.265Z,13.7
2022-10-01T15:37:21.214Z,13.8
2022-10-01T15:38:30.737Z,13.8
2022-10-01T15:39:40.840Z,13.8
2022-10-01T15:40:50.959Z,13.8
2022-10-01T15:42:00.093Z,13.8
2022-10-01T15:43:10.217Z,13.8
2022-10-01T15:44:20.342Z,13.7
2022-10-01T15:45:30.459Z,13.7
2022-10-01T15:46:40.564Z,13.7
2022-10-01T15:47:50.946Z,13.7
2022-10-01T15:49:00.795Z,13.7
2022-10-01T15:50:10.917Z,13.7
2022-10-01T15:51:21.043Z,13.7
2022-10-01T15:52:31.163Z,13.7
2022-10-01T15:54:51.386Z,13.6
2022-10-01T15:56:00.538Z,13.6
2022-10-01T15:57:09.663Z,13.7
2022-10-01T15:58:19.784Z,13.7
2022-10-01T15:59:29.909Z,13.6
2022-10-01T16:00:40.030Z,13.7
2022-10-01T16:01:50.131Z,13.7
2022-10-01T16:04:10.376Z,13.8
2022-10-01T16:05:20.484Z,13.8
2022-10-01T16:06:30.607Z,13.8
2022-10-01T16:07:40.736Z,13.8
2022-10-01T16:08:50.846Z,13.8
2022-10-01T16:10:00.973Z,13.8
2022-10-01T16:11:11.077Z,13.8
2022-10-01T16:12:20.212Z,13.8
2022-10-01T16:13:30.338Z,13.7
2022-10-01T16:14:40.442Z,13.7